Forside
METAR-TAF:

METAR-TAF

Lufthavne :

Prairie du Chien Municipal Airport

Prairie du Chien, Wisconsin, USA

Breddekreds: 43-01-19N, længdekreds: 091-07-29W, højde: 201 m

Aktuelle vejr

Denne rapport blev lavet for 17 minutter siden, kl. 12:15 UTC
Vind 5 kt fra østsydøst
Temperatur 1°C
Fugtighed 93%
Tryk 1020 hPa
Sigt: 11.3 km
Overskyet i en højde af 800 ft
ukendt

METAR: KPDC 241215Z AUTO 11005KT 7SM UP OVC008 01/00 A3011 RMK AO2 T00061005

Tid: 06:32 (12:32 UTC)


TAF: fraværende

Vejrobservationer og prognoser fra mere end 4000 lufthavne (METAR og TAF).

De gule og røde prikker repræsenterer de meteorologiske stationer.

Flyt musen over at se navnet på stationen.

Så klik over at se vejr observationer og prognoser.

At skifte det kort: Klik på de grønne knapper med et sort kors for at zoome ind; på den grønne knap med en bindestreg for at zoome ud; eller på de grønne pile for tilstødende kort.


METAR-TAF: